Time;durP1;ratioP1;P1;durP2;ratioP2;P2;SDS_P1;SDS_P2;PMS_P1;PMS_P2;Temp;Humidity;BMP_temperature;BMP_pressure;BME280_temperature;BME280_humidity;BME280_pressure;Samples;Min_cycle;Max_cycle;Signal;HPM_P1;HPM_P2
2022/07/11 00:00:20;;;;;;;0.00;0.00;;;22.30;62.30;;;;;;5113986;28;20019;-76
2022/07/11 00:02:46;;;;;;;0.00;0.00;;;22.30;63.60;;;;;;5114115;28;20028;-75
2022/07/11 00:05:12;;;;;;;0.00;0.00;;;22.20;63.60;;;;;;5114003;28;20023;-77
2022/07/11 00:07:38;;;;;;;0.00;0.00;;;22.20;63.90;;;;;;5114184;28;20024;-76
2022/07/11 00:10:05;;;;;;;0.00;0.00;;;22.20;64.00;;;;;;5113856;28;20019;-76
2022/07/11 00:12:31;;;;;;;0.00;0.00;;;22.20;66.90;;;;;;5112215;28;20020;-76
2022/07/11 00:14:57;;;;;;;0.00;0.00;;;22.30;63.30;;;;;;5112768;28;20027;-77
2022/07/11 00:17:23;;;;;;;0.00;0.00;;;22.50;61.70;;;;;;5112611;28;20047;-75
2022/07/11 00:19:50;;;;;;;0.00;0.00;;;22.40;61.50;;;;;;5109550;28;20035;-76
2022/07/11 00:22:16;;;;;;;0.40;0.40;;;22.20;62.80;;;;;;5113193;28;20024;-76
2022/07/11 00:24:42;;;;;;;0.00;0.00;;;22.30;62.70;;;;;;5109485;28;20027;-76
2022/07/11 00:27:08;;;;;;;0.00;0.00;;;22.20;61.70;;;;;;5112796;28;20027;-76
2022/07/11 00:29:34;;;;;;;0.00;0.00;;;22.40;62.10;;;;;;5113248;28;20028;-76
2022/07/11 00:32:00;;;;;;;0.00;0.00;;;22.60;63.40;;;;;;5112397;28;20356;-74
2022/07/11 00:34:26;;;;;;;0.00;0.00;;;22.80;63.90;;;;;;5113495;28;20031;-75
2022/07/11 00:36:53;;;;;;;0.00;0.00;;;22.90;61.50;;;;;;5113857;28;20024;-75
2022/07/11 00:39:19;;;;;;;0.00;0.00;;;23.00;62.40;;;;;;5110771;28;20027;-77
2022/07/11 00:41:45;;;;;;;0.00;0.00;;;23.10;61.10;;;;;;5096157;28;20021;-75
2022/07/11 00:44:13;;;;;;;0.00;0.00;;;23.50;60.60;;;;;;5106296;28;20015;-76
2022/07/11 00:46:39;;;;;;;0.00;0.00;;;23.70;60.60;;;;;;5117596;28;20020;-76
2022/07/11 00:49:06;;;;;;;0.00;0.00;;;24.20;59.30;;;;;;5117761;28;20027;-75
2022/07/11 00:51:32;;;;;;;0.00;0.00;;;24.60;56.80;;;;;;5102521;27;20118;-75
2022/07/11 00:54:01;;;;;;;0.00;0.00;;;25.20;56.10;;;;;;5116889;28;20482;-77
2022/07/11 00:56:29;;;;;;;0.00;0.00;;;25.60;56.00;;;;;;5113775;28;20031;-76
2022/07/11 00:58:57;;;;;;;0.00;0.00;;;26.00;54.80;;;;;;5117687;28;20376;-77
2022/07/11 01:01:23;;;;;;;0.00;0.00;;;26.40;53.00;;;;;;5117315;27;20020;-76
2022/07/11 01:03:50;;;;;;;0.00;0.00;;;26.70;53.40;;;;;;5117366;28;20020;-76
2022/07/11 01:06:16;;;;;;;0.00;0.00;;;26.70;53.80;;;;;;5117685;28;20068;-77
2022/07/11 01:08:43;;;;;;;0.10;0.10;;;26.40;54.10;;;;;;5116302;28;20630;-77
2022/07/11 01:11:13;;;;;;;0.00;0.00;;;25.80;56.00;;;;;;5117402;27;20043;-76
2022/07/11 01:13:40;;;;;;;0.00;0.00;;;25.40;57.20;;;;;;5117291;28;20321;-76
2022/07/11 01:16:12;;;;;;;0.00;0.00;;;25.30;57.90;;;;;;5117259;28;20031;-76
2022/07/11 01:18:40;;;;;;;0.00;0.00;;;25.10;58.50;;;;;;5117310;28;20403;-76
2022/07/11 01:21:28;;;;;;;0.00;0.00;;;25.10;59.40;;;;;;5117239;28;20257;-77
2022/07/11 01:23:57;;;;;;;0.00;0.00;;;25.00;59.30;;;;;;5115378;28;20043;-77
2022/07/11 01:26:24;;;;;;;1.50;1.35;;;25.10;60.10;;;;;;5117019;28;20020;-77
2022/07/11 01:28:51;;;;;;;2.80;2.55;;;25.40;59.50;;;;;;5116484;28;20023;-76
2022/07/11 01:31:18;;;;;;;0.00;0.00;;;25.60;58.20;;;;;;5116630;28;20406;-77
2022/07/11 01:33:44;;;;;;;0.35;0.35;;;26.00;57.00;;;;;;5117478;28;20024;-77
2022/07/11 01:36:12;;;;;;;0.00;0.00;;;26.50;55.40;;;;;;5116754;28;20346;-76
2022/07/11 01:38:38;;;;;;;0.00;0.00;;;27.10;53.10;;;;;;5115250;28;20118;-77
2022/07/11 01:41:04;;;;;;;0.50;0.50;;;27.60;49.20;;;;;;5116631;28;20032;-76
2022/07/11 01:43:30;;;;;;;0.00;0.00;;;28.00;49.30;;;;;;5116671;28;20020;-76
2022/07/11 01:45:56;;;;;;;0.00;0.00;;;28.00;49.60;;;;;;5116177;28;20288;-76
2022/07/11 01:48:23;;;;;;;0.00;0.00;;;28.20;50.40;;;;;;5116852;28;20062;-77
2022/07/11 01:50:49;;;;;;;0.00;0.00;;;28.10;50.00;;;;;;5117118;28;20265;-77
2022/07/11 01:53:16;;;;;;;2.28;2.17;;;28.20;51.40;;;;;;5112914;27;20480;-76
2022/07/11 01:55:42;;;;;;;0.00;0.00;;;28.60;49.60;;;;;;5116184;28;20059;-76
2022/07/11 01:58:08;;;;;;;0.00;0.00;;;28.70;50.00;;;;;;5115483;28;20016;-75
2022/07/11 02:00:35;;;;;;;0.00;0.00;;;28.70;50.30;;;;;;5116763;28;20020;-77
2022/07/11 02:03:01;;;;;;;0.00;0.00;;;28.90;49.50;;;;;;5110493;28;20027;-77
2022/07/11 02:05:27;;;;;;;0.00;0.00;;;29.00;46.80;;;;;;5116110;28;20495;-77
2022/07/11 02:10:44;;;;;;;0.00;0.00;;;29.30;46.10;;;;;;5112287;28;20380;-77
2022/07/11 02:13:12;;;;;;;0.00;0.00;;;29.10;46.60;;;;;;5112228;27;20453;-75
2022/07/11 02:15:39;;;;;;;0.00;0.00;;;29.20;46.80;;;;;;5114105;28;20076;-77
2022/07/11 02:18:05;;;;;;;0.00;0.00;;;29.30;44.80;;;;;;5114634;28;20035;-76
2022/07/11 02:20:32;;;;;;;0.10;0.10;;;29.30;43.90;;;;;;5115743;27;20057;-76
2022/07/11 02:22:58;;;;;;;0.00;0.00;;;29.20;43.90;;;;;;5111015;28;20044;-76
2022/07/11 02:25:24;;;;;;;0.00;0.00;;;29.00;44.00;;;;;;5115030;28;20060;-76
2022/07/11 02:27:51;;;;;;;0.00;0.00;;;29.20;43.10;;;;;;5115018;28;20059;-76
2022/07/11 02:30:17;;;;;;;0.00;0.00;;;28.90;43.40;;;;;;5115668;28;20441;-77
2022/07/11 02:32:43;;;;;;;0.00;0.00;;;28.20;44.50;;;;;;5110882;28;20027;-77
2022/07/11 02:35:09;;;;;;;0.00;0.00;;;28.20;45.20;;;;;;5112796;27;20027;-76
2022/07/11 02:37:36;;;;;;;0.10;0.10;;;28.00;46.30;;;;;;5113314;27;20072;-77
2022/07/11 02:40:02;;;;;;;0.10;0.10;;;27.10;49.80;;;;;;5115043;28;20023;-76
2022/07/11 02:42:28;;;;;;;0.15;0.13;;;26.50;52.50;;;;;;5126823;27;20051;-76
2022/07/11 02:44:54;;;;;;;0.30;0.10;;;27.10;52.30;;;;;;5108087;28;20134;-77
2022/07/11 02:47:20;;;;;;;0.50;0.50;;;27.30;52.70;;;;;;5111181;27;20072;-77
2022/07/11 02:49:47;;;;;;;0.08;0.08;;;28.10;50.90;;;;;;5115624;27;20102;-76
2022/07/11 02:52:14;;;;;;;0.10;0.10;;;28.30;50.60;;;;;;5112299;28;20357;-77
2022/07/11 02:54:40;;;;;;;2.03;1.92;;;29.00;50.70;;;;;;5109497;28;20062;-77
2022/07/11 02:57:06;;;;;;;2.50;0.63;;;29.40;49.30;;;;;;5105517;27;20067;-78
2022/07/11 02:59:32;;;;;;;0.43;0.17;;;29.40;48.90;;;;;;5114305;27;20031;-78
2022/07/11 03:01:58;;;;;;;4.57;4.38;;;29.00;48.80;;;;;;5113495;27;20079;-76
2022/07/11 03:04:24;;;;;;;0.50;0.50;;;29.20;49.30;;;;;;5105612;28;20102;-76
2022/07/11 03:06:50;;;;;;;0.00;0.00;;;29.10;50.10;;;;;;5103155;28;20020;-76
2022/07/11 03:09:16;;;;;;;2.17;2.05;;;28.70;49.60;;;;;;5107800;28;20022;-77
2022/07/11 03:11:42;;;;;;;0.00;0.00;;;28.20;50.70;;;;;;5100977;28;20492;-76
2022/07/11 03:14:09;;;;;;;1.67;1.58;;;28.10;49.60;;;;;;5109549;28;20038;-78
2022/07/11 03:16:35;;;;;;;0.28;0.28;;;28.20;49.50;;;;;;5104591;28;20025;-76
2022/07/11 03:19:01;;;;;;;0.00;0.00;;;27.60;48.70;;;;;;5109723;28;20047;-76
2022/07/11 03:21:27;;;;;;;0.08;0.08;;;27.40;49.30;;;;;;5105346;28;20119;-76
2022/07/11 03:23:53;;;;;;;0.00;0.00;;;27.20;49.80;;;;;;5110989;28;20015;-76
2022/07/11 03:26:19;;;;;;;0.30;0.30;;;27.90;48.60;;;;;;5111517;28;20024;-79
2022/07/11 03:28:45;;;;;;;0.63;0.57;;;27.90;48.60;;;;;;5109880;28;20043;-76
2022/07/11 03:31:11;;;;;;;0.00;0.00;;;28.20;48.20;;;;;;5107143;28;20059;-77
2022/07/11 03:33:37;;;;;;;0.30;0.30;;;27.70;48.70;;;;;;5105939;28;20353;-76
2022/07/11 03:36:04;;;;;;;0.47;0.47;;;27.50;49.20;;;;;;5109645;28;20049;-78
2022/07/11 03:38:30;;;;;;;0.75;0.47;;;26.60;50.60;;;;;;5106609;28;20027;-78
2022/07/11 03:40:56;;;;;;;1.35;1.35;;;26.80;50.50;;;;;;5109905;28;20036;-77
2022/07/11 03:43:25;;;;;;;0.00;0.00;;;27.00;50.20;;;;;;5104762;28;20067;-76
2022/07/11 03:45:51;;;;;;;0.10;0.10;;;27.10;50.00;;;;;;5104204;28;20390;-77
2022/07/11 03:48:17;;;;;;;0.20;0.20;;;28.20;48.90;;;;;;5102827;28;20651;-78
2022/07/11 03:50:43;;;;;;;0.00;0.00;;;28.90;46.70;;;;;;5110821;28;20055;-77
2022/07/11 03:53:09;;;;;;;0.00;0.00;;;29.80;44.70;;;;;;5108373;28;20053;-75
2022/07/11 03:55:37;;;;;;;0.20;0.20;;;29.50;45.30;;;;;;5113630;28;20028;-77
2022/07/11 03:58:03;;;;;;;0.08;0.08;;;29.00;45.80;;;;;;5105471;28;20043;-78
2022/07/11 04:00:29;;;;;;;0.00;0.00;;;28.80;46.90;;;;;;5110559;28;20020;-77
2022/07/11 04:02:55;;;;;;;0.00;0.00;;;29.10;46.00;;;;;;5105052;28;20529;-76
2022/07/11 04:05:21;;;;;;;0.00;0.00;;;29.40;44.60;;;;;;5105525;28;20019;-76
2022/07/11 04:07:47;;;;;;;1.52;0.57;;;28.50;45.80;;;;;;5109549;28;20033;-77
2022/07/11 04:10:13;;;;;;;0.00;0.00;;;28.40;46.80;;;;;;5108038;28;20559;-76
2022/07/11 04:12:40;;;;;;;0.00;0.00;;;28.60;47.20;;;;;;5108700;28;20482;-76
2022/07/11 04:15:06;;;;;;;1.05;0.98;;;28.90;45.80;;;;;;5103867;28;20024;-77
2022/07/11 04:17:32;;;;;;;0.00;0.00;;;28.50;45.90;;;;;;5108271;28;20069;-77
2022/07/11 04:19:58;;;;;;;0.00;0.00;;;28.20;46.40;;;;;;5108246;28;20111;-78
2022/07/11 04:22:25;;;;;;;0.00;0.00;;;28.50;44.80;;;;;;5106214;28;20111;-80
2022/07/11 04:24:51;;;;;;;0.43;0.43;;;28.60;45.50;;;;;;5102444;28;20043;-78
2022/07/11 04:27:17;;;;;;;1.52;1.45;;;28.60;44.80;;;;;;5104281;28;20020;-79
2022/07/11 04:29:43;;;;;;;0.00;0.00;;;28.70;45.70;;;;;;5106503;28;20038;-78
2022/07/11 04:32:09;;;;;;;0.00;0.00;;;28.90;44.10;;;;;;5101739;28;20016;-76
2022/07/11 04:34:35;;;;;;;0.20;0.17;;;29.10;43.50;;;;;;5101881;28;20019;-78
2022/07/11 04:37:01;;;;;;;0.93;0.38;;;28.30;44.80;;;;;;5103081;28;20048;-78
2022/07/11 04:39:27;;;;;;;0.85;0.70;;;28.30;45.90;;;;;;5107447;28;20023;-77
2022/07/11 04:41:54;;;;;;;0.00;0.00;;;28.60;45.40;;;;;;5107309;28;20026;-79
2022/07/11 04:44:20;;;;;;;0.00;0.00;;;28.00;45.70;;;;;;5103158;28;20028;-77
2022/07/11 04:46:46;;;;;;;0.40;0.38;;;27.40;46.30;;;;;;5104603;28;20034;-76
2022/07/11 04:49:12;;;;;;;0.00;0.00;;;27.50;45.40;;;;;;5102867;28;20030;-77
2022/07/11 04:51:38;;;;;;;0.00;0.00;;;27.70;45.70;;;;;;5101562;28;20107;-77
2022/07/11 04:54:04;;;;;;;0.77;0.77;;;27.80;45.00;;;;;;5107014;28;20028;-77
2022/07/11 04:56:30;;;;;;;0.00;0.00;;;27.80;44.60;;;;;;5098655;28;20392;-78
2022/07/11 04:58:56;;;;;;;0.00;0.00;;;28.00;44.00;;;;;;5103127;28;20054;-77
2022/07/11 05:01:22;;;;;;;0.10;0.10;;;28.00;44.60;;;;;;5099385;28;20024;-76
2022/07/11 05:03:48;;;;;;;0.17;0.15;;;27.30;46.10;;;;;;5102736;28;20016;-80
2022/07/11 05:06:14;;;;;;;0.00;0.00;;;27.50;46.30;;;;;;5101797;28;20069;-76
2022/07/11 05:08:41;;;;;;;0.00;0.00;;;27.30;47.10;;;;;;5104564;28;20086;-77
2022/07/11 05:11:07;;;;;;;0.00;0.00;;;27.40;48.50;;;;;;5105273;28;20472;-77
2022/07/11 05:13:33;;;;;;;4.53;0.75;;;27.60;48.40;;;;;;5102966;28;20122;-76
2022/07/11 05:15:59;;;;;;;0.20;0.20;;;27.20;50.70;;;;;;5101432;28;20023;-77
2022/07/11 05:18:25;;;;;;;0.00;0.00;;;27.00;50.70;;;;;;5098745;28;20481;-77
2022/07/11 05:20:51;;;;;;;1.95;1.77;;;27.00;50.70;;;;;;5096869;28;20028;-78
2022/07/11 05:23:17;;;;;;;0.65;0.10;;;27.30;49.70;;;;;;5107198;28;20061;-76
2022/07/11 05:25:43;;;;;;;0.13;0.13;;;27.40;49.00;;;;;;5105604;28;20119;-78
2022/07/11 05:28:09;;;;;;;0.10;0.10;;;27.70;47.20;;;;;;5101408;28;20103;-77
2022/07/11 05:30:35;;;;;;;0.10;0.10;;;27.80;47.40;;;;;;5106680;28;20020;-77
2022/07/11 05:33:01;;;;;;;0.15;0.15;;;27.80;46.40;;;;;;5107405;28;20532;-77
2022/07/11 05:35:27;;;;;;;0.00;0.00;;;28.10;45.40;;;;;;5105103;28;20028;-77
2022/07/11 05:37:53;;;;;;;0.08;0.08;;;28.00;45.70;;;;;;5104576;28;20031;-78
2022/07/11 05:40:20;;;;;;;0.00;0.00;;;28.20;42.60;;;;;;5103304;28;20423;-78
2022/07/11 05:42:46;;;;;;;0.00;0.00;;;28.00;42.30;;;;;;5100760;28;20063;-79
2022/07/11 05:45:12;;;;;;;0.00;0.00;;;28.20;41.60;;;;;;5107697;28;20039;-77
2022/07/11 05:47:38;;;;;;;0.77;0.73;;;28.40;42.40;;;;;;5106307;28;20020;-77
2022/07/11 05:50:05;;;;;;;0.00;0.00;;;28.30;41.10;;;;;;5106656;28;20243;-78
2022/07/11 05:52:31;;;;;;;0.00;0.00;;;28.30;41.80;;;;;;5106194;28;20489;-79
2022/07/11 05:54:58;;;;;;;1.00;1.00;;;28.50;42.40;;;;;;5106671;28;20141;-79
2022/07/11 05:57:24;;;;;;;0.60;0.55;;;28.70;42.80;;;;;;5111045;28;20379;-80
2022/07/11 05:59:51;;;;;;;0.00;0.00;;;28.60;44.20;;;;;;5114273;28;20028;-80
2022/07/11 06:02:18;;;;;;;0.65;0.63;;;28.70;45.50;;;;;;5111391;28;20027;-76
2022/07/11 06:04:44;;;;;;;0.00;0.00;;;28.80;45.10;;;;;;5111340;28;20023;-77
2022/07/11 06:08:40;;;;;;;0.00;0.00;;;29.30;44.70;;;;;;5114946;28;20031;-78
2022/07/11 06:09:58;;;;;;;4.30;4.13;;;28.50;45.20;;;;;;5111190;28;20038;-80
2022/07/11 06:12:24;;;;;;;0.00;0.00;;;28.80;45.60;;;;;;5106824;28;20443;-78
2022/07/11 06:14:50;;;;;;;0.00;0.00;;;28.10;46.50;;;;;;5104758;28;20480;-78
2022/07/11 06:17:15;;;;;;;0.00;0.00;;;28.40;47.20;;;;;;5106116;28;20046;-78
2022/07/11 06:19:41;;;;;;;0.00;0.00;;;28.40;47.30;;;;;;5108399;28;20028;-79
2022/07/11 06:22:07;;;;;;;0.15;0.15;;;28.50;47.10;;;;;;5110674;28;20049;-78
2022/07/11 06:24:33;;;;;;;0.00;0.00;;;28.30;47.70;;;;;;5109197;28;20027;-78
2022/07/11 06:27:00;;;;;;;0.00;0.00;;;28.10;48.50;;;;;;5111186;28;20030;-77
2022/07/11 06:29:27;;;;;;;0.00;0.00;;;28.20;48.60;;;;;;5106755;28;20114;-78
2022/07/11 06:31:53;;;;;;;0.00;0.00;;;28.20;49.90;;;;;;5105647;28;20396;-78
2022/07/11 06:34:19;;;;;;;0.30;0.30;;;28.20;49.90;;;;;;5111705;28;20024;-77
2022/07/11 06:36:45;;;;;;;0.77;0.77;;;28.10;52.70;;;;;;5110277;28;20064;-78
2022/07/11 06:39:11;;;;;;;0.55;0.55;;;27.40;54.80;;;;;;5106997;28;20153;-77
2022/07/11 06:41:37;;;;;;;0.00;0.00;;;26.60;50.60;;;;;;5110641;28;20096;-77
2022/07/11 06:44:04;;;;;;;0.52;0.40;;;26.50;56.90;;;;;;5109595;28;20556;-78
2022/07/11 06:46:29;;;;;;;0.00;0.00;;;26.40;51.40;;;;;;5108866;28;20045;-78
2022/07/11 06:48:55;;;;;;;0.30;0.30;;;26.40;50.80;;;;;;5104445;28;20031;-78
2022/07/11 06:51:22;;;;;;;0.00;0.00;;;26.30;50.00;;;;;;5108194;28;20421;-77
2022/07/11 06:53:48;;;;;;;0.00;0.00;;;26.00;49.50;;;;;;5110737;28;20365;-76
2022/07/11 06:56:14;;;;;;;0.00;0.00;;;25.80;50.60;;;;;;5113792;28;20065;-77
2022/07/11 06:58:40;;;;;;;0.47;0.20;;;25.80;49.20;;;;;;5112556;28;20446;-79
2022/07/11 07:01:07;;;;;;;3.85;1.05;;;25.80;48.70;;;;;;5108195;28;20108;-79
2022/07/11 07:03:34;;;;;;;0.00;0.00;;;25.40;47.50;;;;;;5108722;28;20031;-77
2022/07/11 07:06:01;;;;;;;9.05;0.35;;;25.70;46.90;;;;;;5109326;28;20028;-78
2022/07/11 07:08:28;;;;;;;0.00;0.00;;;25.90;46.20;;;;;;5111033;28;20106;-78
2022/07/11 07:10:55;;;;;;;0.00;0.00;;;26.00;46.10;;;;;;5112214;28;20082;-78
2022/07/11 07:13:25;;;;;;;0.10;0.10;;;26.20;45.80;;;;;;5109156;28;20487;-77
2022/07/11 07:15:54;;;;;;;0.38;0.35;;;26.00;44.80;;;;;;5110781;28;20031;-78
2022/07/11 07:18:21;;;;;;;0.10;0.10;;;25.90;44.50;;;;;;5107217;28;20051;-78
2022/07/11 07:20:49;;;;;;;0.32;0.20;;;26.20;44.70;;;;;;5107169;28;20115;-77
2022/07/11 07:23:16;;;;;;;0.00;0.00;;;26.10;43.80;;;;;;5107067;28;20074;-78
2022/07/11 07:25:43;;;;;;;0.00;0.00;;;25.90;45.10;;;;;;5104517;28;20059;-78
2022/07/11 07:28:09;;;;;;;0.00;0.00;;;26.00;44.40;;;;;;5109878;28;20035;-78
2022/07/11 07:30:35;;;;;;;0.00;0.00;;;25.90;44.30;;;;;;5110112;28;20136;-76
2022/07/11 07:33:01;;;;;;;0.70;0.70;;;25.90;44.50;;;;;;5106432;28;20119;-74
2022/07/11 07:35:28;;;;;;;0.20;0.15;;;26.00;43.90;;;;;;5108822;28;20383;-73
2022/07/11 07:37:54;;;;;;;0.03;0.03;;;26.00;43.90;;;;;;5109079;28;20104;-73
2022/07/11 07:40:21;;;;;;;0.00;0.00;;;26.10;43.40;;;;;;5104999;28;20036;-73
2022/07/11 07:42:47;;;;;;;0.52;0.38;;;25.90;44.20;;;;;;5110241;28;20104;-73
2022/07/11 07:45:14;;;;;;;0.10;0.10;;;26.10;44.00;;;;;;5108089;28;20046;-75
2022/07/11 07:47:41;;;;;;;0.00;0.00;;;26.00;44.10;;;;;;5110110;28;20369;-73
2022/07/11 07:50:07;;;;;;;0.00;0.00;;;26.00;45.10;;;;;;5107703;28;20035;-74
2022/07/11 07:52:33;;;;;;;0.00;0.00;;;26.10;46.40;;;;;;5110111;28;20024;-74
2022/07/11 07:54:59;;;;;;;0.00;0.00;;;25.90;49.40;;;;;;5108527;28;20494;-73
2022/07/11 07:57:25;;;;;;;0.00;0.00;;;25.80;57.70;;;;;;5106576;28;20031;-72
2022/07/11 08:01:34;;;;;;;0.00;0.00;;;25.80;61.20;;;;;;5109796;28;20024;-74
2022/07/11 08:02:37;;;;;;;0.00;0.00;;;25.70;59.60;;;;;;5102837;28;20036;-75
2022/07/11 08:05:03;;;;;;;0.00;0.00;;;25.70;60.30;;;;;;5110511;28;20394;-74
2022/07/11 08:07:29;;;;;;;0.00;0.00;;;25.60;58.90;;;;;;5105210;28;20040;-73
2022/07/11 08:09:55;;;;;;;0.00;0.00;;;25.30;56.20;;;;;;5108971;28;20015;-72
2022/07/11 08:12:21;;;;;;;0.00;0.00;;;24.80;68.60;;;;;;5108238;28;20563;-74
2022/07/11 08:14:47;;;;;;;0.00;0.00;;;24.10;62.00;;;;;;5110276;28;20034;-74
2022/07/11 08:17:13;;;;;;;0.47;0.20;;;23.10;73.40;;;;;;5111473;28;20040;-73
2022/07/11 08:19:40;;;;;;;5.57;1.88;;;21.30;99.90;;;;;;5103485;28;20028;-74
2022/07/11 08:22:06;;;;;;;3.10;2.17;;;20.00;99.90;;;;;;5101028;28;20036;-73
2022/07/11 08:24:32;;;;;;;0.10;0.10;;;19.30;99.90;;;;;;5106067;28;20054;-73
2022/07/11 08:26:58;;;;;;;0.20;0.20;;;18.90;99.90;;;;;;5109083;28;20047;-74
2022/07/11 08:29:24;;;;;;;0.00;0.00;;;19.00;99.90;;;;;;5108759;28;20049;-72
2022/07/11 08:31:50;;;;;;;0.00;0.00;;;19.30;99.90;;;;;;5111253;28;20593;-73
2022/07/11 08:34:16;;;;;;;0.10;0.10;;;19.20;99.90;;;;;;5112772;28;20043;-74
2022/07/11 08:36:42;;;;;;;0.38;0.28;;;19.10;99.90;;;;;;5111123;28;20468;-74
2022/07/11 08:39:08;;;;;;;0.00;0.00;;;19.40;99.90;;;;;;5106314;28;20027;-74
2022/07/11 08:41:42;;;;;;;0.10;0.10;;;19.60;99.90;;;;;;5111312;28;20483;-73
2022/07/11 08:44:09;;;;;;;1.65;0.13;;;20.00;99.90;;;;;;5106927;28;20035;-75
2022/07/11 08:46:37;;;;;;;0.00;0.00;;;20.20;99.90;;;;;;5109445;28;20130;-73
2022/07/11 08:49:05;;;;;;;0.95;0.90;;;20.50;99.90;;;;;;5106460;28;20028;-73
2022/07/11 08:51:31;;;;;;;0.00;0.00;;;20.80;99.90;;;;;;5109919;28;20023;-73
2022/07/11 08:53:57;;;;;;;0.00;0.00;;;21.00;99.90;;;;;;5111184;28;20491;-74
2022/07/11 08:56:27;;;;;;;0.00;0.00;;;21.20;99.90;;;;;;5108513;28;20114;-79
2022/07/11 08:58:53;;;;;;;0.38;0.28;;;21.60;99.90;;;;;;5109259;28;20374;-78
2022/07/11 09:01:40;;;;;;;0.00;0.00;;;21.60;99.90;;;;;;5109419;28;20032;-77
2022/07/11 09:04:08;;;;;;;0.32;0.30;;;21.70;99.90;;;;;;5114354;28;20070;-79
2022/07/11 09:06:35;;;;;;;0.00;0.00;;;21.80;99.90;;;;;;5111024;28;20428;-80
2022/07/11 09:09:02;;;;;;;5.43;5.13;;;21.90;99.90;;;;;;5115398;28;20031;-77
2022/07/11 09:11:48;;;;;;;0.17;0.17;;;22.20;99.90;;;;;;5108327;28;20027;-78
2022/07/11 09:14:24;;;;;;;0.05;0.05;;;22.60;99.90;;;;;;5105336;28;20531;-79
2022/07/11 09:17:03;;;;;;;3.65;0.80;;;22.90;99.90;;;;;;5114857;28;20023;-77
2022/07/11 09:19:31;;;;;;;0.10;0.10;;;23.40;99.90;;;;;;5112152;28;20118;-77
2022/07/11 09:27:46;;;;;;;0.10;0.05;;;24.20;99.90;;;;;;5112709;28;20391;-78
2022/07/11 09:30:18;;;;;;;0.00;0.00;;;24.50;99.90;;;;;;5114834;28;20016;-79
2022/07/11 09:33:00;;;;;;;5.85;0.85;;;24.50;99.90;;;;;;5111922;28;20063;-77
2022/07/11 09:35:33;;;;;;;7.22;5.18;;;24.60;93.10;;;;;;5113025;28;20107;-77
2022/07/11 09:38:02;;;;;;;0.00;0.00;;;24.80;95.00;;;;;;5115076;28;20026;-78
2022/07/11 09:40:28;;;;;;;0.30;0.10;;;25.00;93.00;;;;;;5111454;28;20510;-78
2022/07/11 09:42:56;;;;;;;0.00;0.00;;;25.10;77.70;;;;;;5114181;28;20031;-77
2022/07/11 09:45:24;;;;;;;0.10;0.00;;;25.20;77.40;;;;;;5110082;28;20031;-77
2022/07/11 09:47:54;;;;;;;3.63;0.82;;;25.50;70.70;;;;;;5111848;28;20028;-77
2022/07/11 09:50:25;;;;;;;0.55;0.43;;;25.60;67.90;;;;;;5111086;28;20069;-77
2022/07/11 09:53:02;;;;;;;0.13;0.13;;;25.50;66.40;;;;;;5111881;28;20398;-77
2022/07/11 09:55:29;;;;;;;2.28;2.10;;;25.70;68.50;;;;;;5112253;28;20492;-76
2022/07/11 09:57:56;;;;;;;1.50;0.70;;;25.60;67.70;;;;;;5107384;28;20032;-77
2022/07/11 10:00:22;;;;;;;0.55;0.30;;;25.20;65.20;;;;;;5105572;28;20035;-78
2022/07/11 10:02:49;;;;;;;0.35;0.32;;;25.00;68.60;;;;;;5108482;28;20527;-78
2022/07/11 10:05:15;;;;;;;1.05;0.65;;;25.00;68.40;;;;;;5105518;28;20547;-77
2022/07/11 10:07:41;;;;;;;2.47;0.20;;;25.20;65.20;;;;;;5110891;28;20455;-78
2022/07/11 10:10:07;;;;;;;3.78;0.22;;;25.20;66.80;;;;;;5111898;28;20034;-78
2022/07/11 10:12:34;;;;;;;0.47;0.35;;;25.50;64.10;;;;;;5106361;28;20031;-77
2022/07/11 10:15:08;;;;;;;0.50;0.50;;;25.50;63.50;;;;;;5111104;28;20117;-79
2022/07/11 10:18:11;;;;;;;1.23;0.30;;;25.60;63.10;;;;;;5111593;28;20043;-79
2022/07/11 10:20:58;;;;;;;0.30;0.20;;;25.90;61.20;;;;;;5088283;28;20040;-78
2022/07/11 10:23:52;;;;;;;0.10;0.10;;;25.30;63.00;;;;;;5104731;28;20023;-78
2022/07/11 10:26:38;;;;;;;0.30;0.30;;;25.00;66.70;;;;;;5114743;28;20073;-79
2022/07/11 10:29:16;;;;;;;0.10;0.10;;;25.10;66.70;;;;;;5109445;28;20024;-80
2022/07/11 10:31:42;;;;;;;0.00;0.00;;;25.10;65.90;;;;;;5112988;28;20042;-79
2022/07/11 10:34:15;;;;;;;0.08;0.08;;;25.30;66.90;;;;;;5107640;28;20453;-78
2022/07/11 10:36:42;;;;;;;2.55;0.65;;;25.50;66.30;;;;;;5106287;28;20024;-77
2022/07/11 10:39:37;;;;;;;0.20;0.20;;;25.30;69.30;;;;;;5106927;27;20059;-77
2022/07/11 10:42:05;;;;;;;0.00;0.00;;;24.90;75.00;;;;;;5101670;28;20035;-77
2022/07/11 10:44:52;;;;;;;0.40;0.30;;;24.80;75.90;;;;;;5105852;28;20024;-78
2022/07/11 10:47:37;;;;;;;0.00;0.00;;;25.00;74.10;;;;;;5105282;27;20300;-77
2022/07/11 10:50:26;;;;;;;1.35;0.93;;;24.60;75.30;;;;;;5101503;28;20012;-78
2022/07/11 10:52:57;;;;;;;2.22;2.10;;;24.60;76.00;;;;;;5110251;28;20039;-78
2022/07/11 10:55:40;;;;;;;1.00;0.57;;;24.70;78.50;;;;;;5114223;28;20392;-78
2022/07/11 10:58:33;;;;;;;0.20;0.10;;;24.50;80.00;;;;;;5112868;27;20035;-76
2022/07/11 11:01:17;;;;;;;0.43;0.43;;;24.40;83.10;;;;;;5106851;28;20125;-77
2022/07/11 11:03:44;;;;;;;3.58;0.90;;;24.60;86.20;;;;;;5113930;28;20047;-78
2022/07/11 11:06:10;;;;;;;2.85;0.32;;;24.80;83.50;;;;;;5111163;28;20032;-79
2022/07/11 11:08:37;;;;;;;0.08;0.08;;;24.80;82.10;;;;;;5108785;28;20024;-77
2022/07/11 11:11:24;;;;;;;0.98;0.65;;;24.60;83.20;;;;;;5108031;28;20367;-78
2022/07/11 11:14:18;;;;;;;0.00;0.00;;;24.40;83.50;;;;;;5108340;28;20026;-78
2022/07/11 11:16:45;;;;;;;0.15;0.15;;;24.00;88.00;;;;;;5102224;28;20019;-77
2022/07/11 11:19:48;;;;;;;0.50;0.22;;;23.80;84.10;;;;;;5103615;28;20058;-77
2022/07/11 11:22:15;;;;;;;0.00;0.00;;;23.70;86.20;;;;;;5108228;28;20027;-77
2022/07/11 11:24:46;;;;;;;0.30;0.30;;;23.70;85.00;;;;;;5105192;28;20073;-77
2022/07/11 11:27:19;;;;;;;0.30;0.30;;;23.60;85.30;;;;;;5103364;28;20464;-78
2022/07/11 11:29:45;;;;;;;0.20;0.20;;;24.00;84.10;;;;;;5105555;28;20479;-77
2022/07/11 11:32:12;;;;;;;0.00;0.00;;;24.10;82.40;;;;;;5106934;28;20031;-77
2022/07/11 11:34:40;;;;;;;0.00;0.00;;;24.10;82.90;;;;;;5106458;28;20092;-76
2022/07/11 11:37:07;;;;;;;0.28;0.10;;;24.40;82.10;;;;;;5106894;28;20460;-77
2022/07/11 11:39:40;;;;;;;0.10;0.10;;;24.50;78.00;;;;;;5106017;28;20034;-77
2022/07/11 11:42:17;;;;;;;0.00;0.00;;;24.50;77.10;;;;;;5107674;28;20016;-77
2022/07/11 11:44:52;;;;;;;0.77;0.65;;;24.60;78.00;;;;;;5104028;28;20019;-77
2022/07/11 11:47:19;;;;;;;3.22;0.90;;;24.70;73.00;;;;;;5111124;28;20483;-78
2022/07/11 11:49:47;;;;;;;0.65;0.10;;;24.50;71.80;;;;;;5111642;28;20081;-77
2022/07/11 11:52:16;;;;;;;7.03;0.28;;;24.30;73.30;;;;;;5108077;28;20023;-77
2022/07/11 11:54:43;;;;;;;1.20;0.50;;;24.30;72.10;;;;;;5100161;28;20043;-78
2022/07/11 11:57:12;;;;;;;0.00;0.00;;;24.30;71.40;;;;;;5111925;28;20040;-77
2022/07/11 11:59:41;;;;;;;0.03;0.03;;;24.20;71.70;;;;;;5108381;28;20032;-77
2022/07/11 12:02:08;;;;;;;0.90;0.75;;;24.20;73.00;;;;;;5104551;28;20065;-77
2022/07/11 12:04:36;;;;;;;4.05;1.02;;;24.20;72.50;;;;;;5106884;28;20051;-77
2022/07/11 12:07:04;;;;;;;0.00;0.00;;;24.20;73.10;;;;;;5105257;28;20046;-76
2022/07/11 12:09:54;;;;;;;0.90;0.20;;;24.20;73.70;;;;;;5104374;28;20368;-77
2022/07/11 12:15:22;;;;;;;0.65;0.20;;;24.20;72.30;;;;;;5111359;28;20483;-78
2022/07/11 12:17:49;;;;;;;0.10;0.10;;;24.10;72.20;;;;;;5101758;28;20322;-77
2022/07/11 12:20:36;;;;;;;0.60;0.60;;;24.10;73.20;;;;;;5109091;28;20050;-77
2022/07/11 12:23:05;;;;;;;1.00;0.25;;;24.00;73.00;;;;;;5110038;28;20540;-78
2022/07/11 12:25:31;;;;;;;0.75;0.75;;;24.10;73.70;;;;;;5113881;28;20049;-79
2022/07/11 12:27:57;;;;;;;2.95;0.82;;;24.00;74.40;;;;;;5110698;28;20138;-77
2022/07/11 12:30:24;;;;;;;1.27;0.40;;;24.00;75.30;;;;;;5108294;28;20091;-76
2022/07/11 12:33:11;;;;;;;0.20;0.20;;;24.00;74.70;;;;;;5104053;28;20073;-77
2022/07/11 12:35:52;;;;;;;3.17;1.55;;;24.00;74.20;;;;;;5103290;28;20418;-76
2022/07/11 12:38:18;;;;;;;77.82;5.47;;;23.80;73.80;;;;;;5100456;28;20427;-78
2022/07/11 12:41:02;;;;;;;8.27;1.55;;;23.70;75.50;;;;;;5112250;28;20027;-77
2022/07/11 12:46:34;;;;;;;5.40;3.80;;;23.60;77.70;;;;;;5104621;28;20035;-77
2022/07/11 12:49:08;;;;;;;0.10;0.10;;;23.70;78.90;;;;;;5102392;28;20087;-78
2022/07/11 12:51:40;;;;;;;1.20;0.85;;;23.60;80.30;;;;;;5106791;28;20032;-76
2022/07/11 12:54:08;;;;;;;0.45;0.40;;;23.60;81.50;;;;;;5110272;28;20433;-77
2022/07/11 12:56:35;;;;;;;0.98;0.60;;;23.60;83.20;;;;;;5111894;28;20423;-76
2022/07/11 12:59:03;;;;;;;6.57;2.15;;;23.40;85.30;;;;;;5112749;28;20051;-77
2022/07/11 13:01:30;;;;;;;0.80;0.80;;;23.40;87.50;;;;;;5112111;28;20352;-77
2022/07/11 13:03:57;;;;;;;18.92;2.30;;;23.40;89.10;;;;;;5108031;28;20024;-76
2022/07/11 13:09:09;;;;;;;1.60;0.57;;;23.10;90.20;;;;;;5113703;28;20034;-78
2022/07/11 13:11:35;;;;;;;0.13;0.10;;;23.10;90.70;;;;;;5111996;28;20039;-77